Time;durP1;ratioP1;P1;durP2;ratioP2;P2;SDS_P1;SDS_P2;PMS_P1;PMS_P2;Temp;Humidity;BMP_temperature;BMP_pressure;BME280_temperature;BME280_humidity;BME280_pressure;Samples;Min_cycle;Max_cycle;Signal;HPM_P1;HPM_P2
2023/02/17 00:01:10;;;;;;;9.80;5.60;;;;;;;14.18;47.67;97189.59;5093201;28;20091;-50
2023/02/17 00:03:38;;;;;;;12.75;5.85;;;;;;;14.25;47.46;97183.53;5095759;28;20079;-49
2023/02/17 00:06:07;;;;;;;11.77;5.38;;;;;;;14.41;47.74;97180.19;5094301;27;20086;-49
2023/02/17 00:08:37;;;;;;;10.90;6.03;;;;;;;14.01;48.39;97189.41;5100271;28;20090;-46
2023/02/17 00:11:06;;;;;;;10.00;5.50;;;;;;;13.44;50.18;97193.13;5103129;28;20084;-47
2023/02/17 00:13:34;;;;;;;10.85;5.78;;;;;;;14.32;47.72;97182.94;5100800;27;20110;-46
2023/02/17 00:16:06;;;;;;;11.25;5.95;;;;;;;14.48;47.86;97183.09;5097572;28;20086;-47
2023/02/17 00:18:35;;;;;;;12.27;5.22;;;;;;;14.52;47.46;97184.50;5100260;28;20087;-50
2023/02/17 00:21:11;;;;;;;10.57;5.50;;;;;;;14.53;47.01;97180.03;5094088;28;20079;-47
2023/02/17 00:23:41;;;;;;;12.82;6.72;;;;;;;14.51;47.41;97174.03;5100711;27;20083;-52
2023/02/17 00:26:09;;;;;;;14.65;6.65;;;;;;;14.51;47.53;97174.84;5108243;27;20080;-47
2023/02/17 00:28:38;;;;;;;15.27;6.05;;;;;;;14.51;46.82;97172.22;5098983;27;21898;-45
2023/02/17 00:31:07;;;;;;;11.18;6.07;;;;;;;14.23;46.54;97171.41;5095816;27;20076;-51
2023/02/17 00:33:36;;;;;;;9.98;5.28;;;;;;;13.94;47.34;97177.72;5102410;27;20079;-48
2023/02/17 00:36:05;;;;;;;14.30;5.30;;;;;;;14.08;47.19;97184.34;5105804;27;20083;-49
2023/02/17 00:38:34;;;;;;;8.43;4.70;;;;;;;13.73;47.93;97177.97;5096213;27;20080;-50
2023/02/17 00:41:04;;;;;;;11.57;5.50;;;;;;;14.07;50.09;97185.31;5098564;27;20293;-48
2023/02/17 00:43:32;;;;;;;9.48;5.15;;;;;;;13.74;50.62;97178.81;5099023;27;20535;-49
2023/02/17 00:46:02;;;;;;;10.05;5.22;;;;;;;13.29;55.44;97185.66;5100088;27;20114;-48
2023/02/17 00:48:32;;;;;;;9.35;5.43;;;;;;;13.53;56.13;97177.22;5093175;27;20083;-44
2023/02/17 00:51:00;;;;;;;15.10;5.82;;;;;;;13.89;55.74;97185.28;5098280;27;20083;-44
2023/02/17 00:53:28;;;;;;;10.55;5.55;;;;;;;14.10;52.89;97182.38;5104740;27;20079;-50
2023/02/17 00:55:57;;;;;;;11.35;5.32;;;;;;;14.01;50.24;97172.66;5097427;27;20079;-49
2023/02/17 00:58:26;;;;;;;9.93;4.95;;;;;;;13.08;50.98;97182.34;5097240;27;20606;-48
2023/02/17 01:00:55;;;;;;;10.35;4.90;;;;;;;12.98;53.13;97186.81;5099585;28;20075;-50
2023/02/17 01:03:25;;;;;;;10.73;4.63;;;;;;;12.92;54.48;97185.56;5101755;27;20472;-48
2023/02/17 01:05:54;;;;;;;7.90;4.73;;;;;;;13.10;53.40;97172.41;5098279;27;20077;-44
2023/02/17 01:08:22;;;;;;;9.45;4.95;;;;;;;13.25;53.93;97178.16;5102379;27;20083;-49
2023/02/17 01:10:52;;;;;;;9.35;4.85;;;;;;;13.47;52.63;97167.19;5095842;27;20118;-49
2023/02/17 01:13:20;;;;;;;7.78;4.60;;;;;;;13.62;52.87;97174.66;5098541;27;20082;-49
2023/02/17 01:15:52;;;;;;;8.80;5.03;;;;;;;13.76;51.82;97172.38;5093448;27;20087;-46
2023/02/17 01:18:23;;;;;;;11.43;4.65;;;;;;;13.68;52.41;97169.59;5097478;27;20083;-47
2023/02/17 01:20:51;;;;;;;10.40;4.78;;;;;;;13.94;51.38;97169.78;5100947;27;20083;-51
2023/02/17 01:23:20;;;;;;;9.77;5.13;;;;;;;13.83;50.61;97161.16;5097105;27;20102;-46
2023/02/17 01:25:49;;;;;;;9.35;4.60;;;;;;;13.81;50.74;97166.63;5097001;27;20075;-50
2023/02/17 01:28:19;;;;;;;9.90;4.95;;;;;;;13.48;51.98;97168.03;5096299;27;20083;-47
2023/02/17 01:30:49;;;;;;;11.10;5.25;;;;;;;13.75;51.04;97162.75;5094617;27;20098;-50
2023/02/17 01:33:17;;;;;;;11.10;5.00;;;;;;;13.70;52.14;97161.53;5096681;27;20090;-49
2023/02/17 01:35:46;;;;;;;9.20;4.55;;;;;;;13.54;51.57;97165.63;5094569;27;20087;-50
2023/02/17 01:38:14;;;;;;;7.20;4.72;;;;;;;13.86;51.43;97159.06;5097765;27;20090;-49
2023/02/17 01:40:47;;;;;;;10.48;5.03;;;;;;;13.41;53.13;97166.94;5094520;27;20090;-44
2023/02/17 01:43:17;;;;;;;10.02;5.28;;;;;;;13.51;53.16;97165.91;5100684;27;20083;-48
2023/02/17 01:45:52;;;;;;;7.28;4.47;;;;;;;13.69;52.73;97159.84;5094914;27;20153;-50
2023/02/17 01:48:21;;;;;;;10.38;5.00;;;;;;;13.46;52.81;97159.41;5104913;27;20106;-46
2023/02/17 01:50:54;;;;;;;13.23;5.70;;;;;;;13.38;53.47;97162.75;5100749;27;20087;-52
2023/02/17 01:53:25;;;;;;;13.35;5.45;;;;;;;13.42;52.70;97158.84;5092309;27;20075;-49
2023/02/17 01:55:55;;;;;;;9.77;4.88;;;;;;;13.59;52.34;97146.63;5096676;27;20122;-49
2023/02/17 01:58:24;;;;;;;8.57;5.28;;;;;;;12.99;54.38;97154.88;5101789;28;20079;-50
2023/02/17 02:00:55;;;;;;;10.48;5.07;;;;;;;13.57;53.41;97145.13;5092007;28;20102;-46
2023/02/17 02:03:24;;;;;;;9.05;5.15;;;;;;;13.28;54.37;97140.75;5100067;27;20109;-46
2023/02/17 02:05:52;;;;;;;8.20;5.18;;;;;;;13.26;55.19;97145.38;5097639;28;20145;-47
2023/02/17 02:08:20;;;;;;;9.15;4.90;;;;;;;13.04;55.42;97146.50;5098763;27;20087;-46
2023/02/17 02:10:49;;;;;;;10.68;5.35;;;;;;;13.10;55.70;97143.28;5096222;27;20079;-51
2023/02/17 02:13:17;;;;;;;9.30;5.18;;;;;;;13.23;55.22;97142.97;5093741;27;20072;-52
2023/02/17 02:15:49;;;;;;;11.82;5.03;;;;;;;13.97;52.85;97142.09;5097034;27;20079;-52
2023/02/17 02:18:39;;;;;;;9.98;5.60;;;;;;;13.68;53.31;97147.56;5098218;27;20085;-51
2023/02/17 02:21:29;;;;;;;9.25;5.20;;;;;;;13.22;57.64;97154.56;5103912;27;20090;-48
2023/02/17 02:24:12;;;;;;;9.73;5.57;;;;;;;13.13;57.16;97150.13;5100988;27;20304;-44
2023/02/17 02:27:04;;;;;;;12.75;5.55;;;;;;;12.91;56.08;97148.66;5090275;28;20532;-45
2023/02/17 02:29:48;;;;;;;9.38;5.72;;;;;;;13.45;54.96;97139.16;5095263;27;20503;-51
2023/02/17 02:32:39;;;;;;;9.27;5.10;;;;;;;13.54;54.66;97146.25;5095620;27;20079;-50
2023/02/17 02:35:07;;;;;;;;;;;;;;;13.02;55.96;97146.66;5095112;27;20079;-45
2023/02/17 02:37:40;;;;;;;9.55;5.63;;;;;;;13.34;55.87;97137.53;5099687;27;20462;-47
2023/02/17 02:40:10;;;;;;;9.73;5.60;;;;;;;13.22;56.42;97138.69;5102036;27;20072;-49
2023/02/17 02:42:39;;;;;;;11.00;6.13;;;;;;;12.85;57.78;97130.69;5091737;28;20106;-50
2023/02/17 02:45:09;;;;;;;11.13;6.00;;;;;;;12.65;58.17;97129.88;5098838;27;20087;-45
2023/02/17 02:47:47;;;;;;;11.35;6.07;;;;;;;12.95;58.27;97120.91;5100475;27;20090;-46
2023/02/17 02:50:18;;;;;;;10.73;6.07;;;;;;;12.98;57.48;97131.22;5100064;27;20083;-44
2023/02/17 02:52:53;;;;;;;;;;;;;;;13.06;57.92;97124.22;5103602;27;20083;-48
2023/02/17 02:55:27;;;;;;;11.35;5.30;;;;;;;13.09;56.60;97117.78;5096789;27;19954;-47
2023/02/17 02:58:02;;;;;;;10.98;5.80;;;;;;;13.26;57.02;97111.78;5095487;27;20083;-49
2023/02/17 03:00:34;;;;;;;11.55;6.53;;;;;;;12.75;59.18;97106.88;5091000;27;20083;-50
2023/02/17 03:03:08;;;;;;;11.82;6.18;;;;;;;12.91;57.90;97111.59;5089738;27;20086;-47
2023/02/17 03:05:41;;;;;;;14.43;6.55;;;;;;;13.02;57.97;97098.16;5097931;28;20075;-45
2023/02/17 03:08:12;;;;;;;10.10;5.75;;;;;;;12.92;58.11;97111.44;5093857;28;20106;-45
2023/02/17 03:10:45;;;;;;;12.10;5.63;;;;;;;13.77;54.22;97097.16;5093903;27;20083;-52
2023/02/17 03:13:13;;;;;;;10.00;5.00;;;;;;;13.34;54.08;97094.31;5095445;27;20075;-46
2023/02/17 03:15:42;;;;;;;11.30;5.32;;;;;;;13.16;54.83;97095.06;5096253;28;20470;-50
2023/02/17 03:18:11;;;;;;;9.32;5.25;;;;;;;13.44;53.51;97095.09;5091141;27;20087;-46
2023/02/17 03:20:50;;;;;;;10.73;5.87;;;;;;;13.55;53.11;97097.56;5093686;27;20075;-47
2023/02/17 03:23:19;;;;;;;9.38;5.50;;;;;;;13.62;54.38;97092.50;5095762;27;20080;-52
2023/02/17 03:25:47;;;;;;;9.73;4.13;;;;;;;13.14;54.38;97088.22;5103730;27;20517;-43
2023/02/17 03:28:15;;;;;;;8.18;4.68;;;;;;;13.45;53.89;97080.88;5095579;27;20079;-47
2023/02/17 03:30:44;;;;;;;9.35;4.65;;;;;;;13.39;54.13;97090.25;5101651;28;20527;-47
2023/02/17 03:33:13;;;;;;;7.97;4.60;;;;;;;13.23;54.45;97082.91;5097517;28;20083;-46
2023/02/17 03:35:41;;;;;;;9.38;5.00;;;;;;;12.96;54.73;97082.84;5096142;28;20075;-44
2023/02/17 03:38:10;;;;;;;7.38;3.90;;;;;;;12.98;54.73;97083.56;5094808;28;20077;-48
2023/02/17 03:40:38;;;;;;;9.70;5.07;;;;;;;13.56;54.04;97074.53;5089188;28;20539;-48
2023/02/17 03:43:06;;;;;;;8.73;4.93;;;;;;;13.33;54.17;97076.75;5093033;28;20086;-48
2023/02/17 03:45:36;;;;;;;8.32;4.32;;;;;;;13.02;54.70;97080.47;5104381;28;20644;-47
2023/02/17 03:48:04;;;;;;;8.32;4.47;;;;;;;13.40;54.31;97080.50;5094531;28;20072;-46
2023/02/17 03:50:34;;;;;;;7.00;3.92;;;;;;;13.21;54.56;97089.31;5095083;28;20091;-48
2023/02/17 03:53:03;;;;;;;9.88;5.00;;;;;;;13.48;54.87;97086.72;5091259;28;20456;-49
2023/02/17 03:55:32;;;;;;;10.05;5.13;;;;;;;13.33;55.38;97090.00;5100250;28;20078;-51
2023/02/17 03:58:00;;;;;;;9.18;4.47;;;;;;;13.15;53.80;97089.91;5099082;27;20083;-46
2023/02/17 04:00:28;;;;;;;11.27;4.88;;;;;;;13.42;54.61;97089.97;5100654;27;20067;-46
2023/02/17 04:02:57;;;;;;;9.70;4.53;;;;;;;13.50;53.27;97090.06;5095113;28;20075;-47
2023/02/17 04:05:25;;;;;;;8.27;4.60;;;;;;;13.76;53.79;97089.34;5100945;27;20083;-48
2023/02/17 04:07:55;;;;;;;10.88;4.75;;;;;;;13.73;53.44;97079.91;5097939;27;21782;-45
2023/02/17 04:10:23;;;;;;;9.00;5.10;;;;;;;13.59;52.77;97079.53;5116141;27;20082;-47
2023/02/17 04:12:51;;;;;;;11.02;4.50;;;;;;;14.00;51.17;97075.50;5098064;28;20102;-42
2023/02/17 04:15:19;;;;;;;7.82;4.60;;;;;;;14.09;50.47;97076.44;5099007;27;20098;-45
2023/02/17 04:17:48;;;;;;;9.10;4.35;;;;;;;13.88;49.61;97058.16;5098821;27;20082;-44
2023/02/17 04:20:16;;;;;;;7.57;4.22;;;;;;;14.10;49.68;97057.72;5094674;27;20076;-44
2023/02/17 04:22:45;;;;;;;7.22;4.32;;;;;;;13.88;50.60;97059.00;5096439;27;20094;-45
2023/02/17 04:25:14;;;;;;;7.53;3.92;;;;;;;13.99;49.94;97055.28;5097426;28;20086;-46
2023/02/17 04:27:43;;;;;;;7.07;3.97;;;;;;;14.04;49.16;97057.47;5095033;27;20076;-51
2023/02/17 04:30:12;;;;;;;6.72;3.80;;;;;;;14.19;49.29;97064.75;5102946;27;20079;-51
2023/02/17 04:32:40;;;;;;;5.97;3.22;;;;;;;13.72;49.72;97069.44;5093936;28;20558;-50
2023/02/17 04:35:09;;;;;;;8.13;4.00;;;;;;;13.58;50.44;97069.94;5101058;27;20075;-49
2023/02/17 04:37:37;;;;;;;7.03;3.28;;;;;;;14.07;49.19;97065.97;5100583;27;20083;-47
2023/02/17 04:40:09;;;;;;;7.65;3.70;;;;;;;13.85;49.13;97072.56;5091487;27;20102;-50
2023/02/17 04:42:39;;;;;;;7.18;2.78;;;;;;;14.13;49.10;97064.53;5094817;27;20464;-52
2023/02/17 04:45:08;;;;;;;6.77;3.37;;;;;;;14.36;48.49;97054.28;5101539;27;20105;-48
2023/02/17 04:47:36;;;;;;;6.05;3.50;;;;;;;13.99;49.09;97066.72;5096906;27;20088;-45
2023/02/17 04:50:05;;;;;;;5.65;3.00;;;;;;;14.49;48.19;97054.72;5094088;27;20086;-50
2023/02/17 04:52:34;;;;;;;7.10;3.65;;;;;;;14.23;48.75;97055.50;5099437;27;20633;-46
2023/02/17 04:55:02;;;;;;;5.65;3.17;;;;;;;14.48;47.45;97053.88;5102469;27;20079;-49
2023/02/17 04:57:30;;;;;;;7.57;2.83;;;;;;;14.30;47.38;97047.78;5097979;27;20071;-52
2023/02/17 05:00:00;;;;;;;7.15;3.10;;;;;;;14.21;48.05;97052.19;5101585;27;20063;-50
2023/02/17 05:02:29;;;;;;;5.93;3.30;;;;;;;14.51;47.33;97046.63;5093564;27;20080;-46
2023/02/17 05:04:57;;;;;;;5.43;3.25;;;;;;;15.07;46.37;97038.22;5097083;27;20464;-55
2023/02/17 05:07:26;;;;;;;7.40;3.42;;;;;;;14.53;47.80;97037.53;5098594;27;20098;-49
2023/02/17 05:09:54;;;;;;;8.57;3.00;;;;;;;14.71;47.17;97048.94;5095499;28;20532;-47
2023/02/17 05:12:22;;;;;;;5.93;3.50;;;;;;;14.36;47.71;97039.22;5102174;27;20089;-48
2023/02/17 05:14:50;;;;;;;6.20;2.80;;;;;;;14.29;47.64;97045.28;5102125;27;20475;-53
2023/02/17 05:17:20;;;;;;;7.28;3.10;;;;;;;14.33;47.69;97050.13;5095955;27;20510;-51
2023/02/17 05:19:48;;;;;;;9.80;3.45;;;;;;;14.32;47.29;97045.81;5091867;27;20079;-49
2023/02/17 05:22:16;;;;;;;4.95;2.75;;;;;;;14.01;48.06;97048.03;5100582;27;20079;-46
2023/02/17 05:24:44;;;;;;;4.72;2.85;;;;;;;14.53;47.58;97045.50;5102986;27;20472;-46
2023/02/17 05:27:13;;;;;;;7.07;3.22;;;;;;;14.59;47.62;97041.38;5102700;27;20086;-47
2023/02/17 05:29:41;;;;;;;6.18;2.80;;;;;;;14.42;47.15;97032.47;5109108;27;20734;-50
2023/02/17 05:32:09;;;;;;;6.88;3.05;;;;;;;14.47;48.06;97038.13;5100959;27;20086;-51
2023/02/17 05:34:39;;;;;;;7.38;2.78;;;;;;;14.34;48.50;97037.69;5099511;27;20081;-50
2023/02/17 05:37:07;;;;;;;5.18;3.28;;;;;;;14.38;48.72;97037.25;5096277;27;20086;-47
2023/02/17 05:39:36;;;;;;;5.28;2.80;;;;;;;13.87;50.89;97038.78;5095670;27;20079;-45
2023/02/17 05:42:04;;;;;;;6.35;2.67;;;;;;;14.11;51.57;97048.78;5092973;28;20082;-50
2023/02/17 05:44:32;;;;;;;7.95;2.60;;;;;;;13.98;51.11;97046.50;5098486;27;20086;-47
2023/02/17 05:47:01;;;;;;;6.45;3.00;;;;;;;14.10;53.31;97052.41;5092294;28;20111;-46
2023/02/17 05:49:29;;;;;;;6.90;2.70;;;;;;;13.94;54.10;97057.56;5099246;27;20071;-49
2023/02/17 05:51:59;;;;;;;7.57;2.58;;;;;;;14.20;52.41;97049.69;5094456;27;20071;-44
2023/02/17 05:54:27;;;;;;;6.80;3.00;;;;;;;14.28;53.48;97059.50;5104225;27;20083;-49
2023/02/17 05:56:55;;;;;;;7.55;2.67;;;;;;;13.93;53.92;97062.00;5095464;27;20068;-47
2023/02/17 05:59:24;;;;;;;7.80;2.90;;;;;;;14.03;54.14;97051.34;5096796;27;20074;-43
2023/02/17 06:01:52;;;;;;;8.82;3.50;;;;;;;13.97;55.98;97059.91;5090185;27;20083;-52
2023/02/17 06:04:21;;;;;;;6.55;2.78;;;;;;;13.90;57.47;97057.03;5100120;27;20075;-45
2023/02/17 06:06:49;;;;;;;5.93;3.03;;;;;;;13.72;57.88;97064.13;5097905;27;20535;-51
2023/02/17 06:09:19;;;;;;;8.68;3.05;;;;;;;14.25;58.01;97063.34;5097190;27;20064;-50
2023/02/17 06:11:47;;;;;;;4.97;3.00;;;;;;;14.04;59.08;97065.44;5098356;27;20067;-45
2023/02/17 06:14:15;;;;;;;8.80;3.58;;;;;;;14.14;58.66;97067.06;5098634;27;20546;-54
2023/02/17 06:16:44;;;;;;;7.28;3.30;;;;;;;14.09;60.92;97071.97;5107050;27;20066;-47
2023/02/17 06:19:12;;;;;;;4.40;2.35;;;;;;;13.92;59.24;97070.97;5097419;27;20059;-46
2023/02/17 06:21:40;;;;;;;7.70;3.30;;;;;;;13.73;61.55;97066.63;5097274;27;20081;-48
2023/02/17 06:24:09;;;;;;;8.93;3.28;;;;;;;13.96;62.65;97069.66;5098689;27;20079;-46
2023/02/17 06:26:38;;;;;;;3.15;1.95;;;;;;;13.80;64.96;97069.53;5093066;28;20071;-49
2023/02/17 06:29:07;;;;;;;5.28;2.13;;;;;;;13.90;62.84;97072.09;5092780;28;20068;-49
2023/02/17 06:31:35;;;;;;;6.30;2.22;;;;;;;13.98;65.12;97077.50;5099573;27;20070;-49
2023/02/17 06:34:04;;;;;;;3.55;2.05;;;;;;;13.80;68.12;97076.63;5094509;27;20075;-49
2023/02/17 06:36:33;;;;;;;5.07;2.85;;;;;;;13.99;69.78;97072.03;5098575;28;20189;-48
2023/02/17 06:39:02;;;;;;;6.20;3.10;;;;;;;14.07;71.74;97065.97;5095334;27;20083;-51
2023/02/17 06:41:30;;;;;;;6.85;2.47;;;;;;;13.93;73.24;97061.19;5091768;27;20087;-49
2023/02/17 06:44:00;;;;;;;9.30;2.97;;;;;;;14.06;75.80;97069.59;5092709;27;20568;-51
2023/02/17 06:46:28;;;;;;;7.33;3.00;;;;;;;14.13;76.43;97060.06;5100408;27;20078;-51
2023/02/17 06:48:56;;;;;;;4.57;2.40;;;;;;;14.34;77.86;97062.38;5099730;27;20592;-46
2023/02/17 06:51:25;;;;;;;11.43;3.55;;;;;;;14.27;82.41;97061.34;5091828;28;20094;-49
2023/02/17 06:53:53;;;;;;;10.18;3.67;;;;;;;14.33;78.22;97066.03;5095780;27;20067;-47
2023/02/17 06:56:21;;;;;;;8.68;3.03;;;;;;;14.32;79.68;97056.44;5101338;27;20133;-47
2023/02/17 06:58:51;;;;;;;9.85;2.90;;;;;;;14.37;78.73;97062.09;5091556;27;20526;-51
2023/02/17 07:01:22;;;;;;;4.47;2.25;;;;;;;14.17;79.43;97064.06;5096046;27;20435;-46
2023/02/17 07:03:51;;;;;;;5.35;3.63;;;;;;;14.17;83.31;97066.72;5095285;28;20098;-44
2023/02/17 07:06:19;;;;;;;9.43;3.60;;;;;;;14.22;82.62;97063.63;5098486;27;20087;-45
2023/02/17 07:08:47;;;;;;;5.55;2.90;;;;;;;14.36;84.41;97064.91;5093363;27;20072;-50
2023/02/17 07:11:16;;;;;;;13.35;3.03;;;;;;;14.46;83.69;97065.66;5093464;27;20075;-45
2023/02/17 07:13:45;;;;;;;8.55;3.53;;;;;;;14.33;77.43;97060.72;5087207;27;20083;-46
2023/02/17 07:16:14;;;;;;;8.23;2.88;;;;;;;14.42;80.06;97059.00;5101559;28;20091;-46
2023/02/17 07:18:44;;;;;;;7.23;3.03;;;;;;;14.66;75.76;97061.03;5091804;27;20102;-45
2023/02/17 07:21:12;;;;;;;9.30;2.63;;;;;;;14.27;80.43;97066.66;5090358;28;20515;-48
2023/02/17 07:23:41;;;;;;;7.10;2.47;;;;;;;14.49;80.39;97068.84;5094500;28;20497;-47
2023/02/17 07:26:10;;;;;;;5.82;2.38;;;;;;;14.70;79.54;97073.00;5107592;27;20075;-44
2023/02/17 07:28:40;;;;;;;8.43;3.20;;;;;;;14.41;79.46;97067.91;5091535;28;20066;-48
2023/02/17 07:31:10;;;;;;;7.43;2.65;;;;;;;14.61;80.12;97074.75;5093295;28;20079;-47
2023/02/17 07:33:38;;;;;;;10.30;2.88;;;;;;;14.55;77.97;97074.53;5106284;28;20067;-49
2023/02/17 07:36:10;;;;;;;6.07;2.40;;;;;;;14.89;78.38;97069.28;5097372;27;20079;-49
2023/02/17 07:38:38;;;;;;;5.50;2.58;;;;;;;14.52;77.34;97078.34;5096814;28;20079;-45
2023/02/17 07:41:08;;;;;;;7.95;2.40;;;;;;;15.22;75.02;97066.84;5098854;28;20102;-46
2023/02/17 07:43:36;;;;;;;10.35;2.78;;;;;;;14.75;73.72;97078.66;5096625;28;20079;-46
2023/02/17 07:46:06;;;;;;;8.43;2.67;;;;;;;14.67;76.48;97071.47;5097409;28;20141;-49
2023/02/17 07:48:35;;;;;;;8.18;2.90;;;;;;;15.04;75.39;97069.56;5105375;28;20070;-53
2023/02/17 07:51:08;;;;;;;5.93;1.92;;;;;;;14.59;75.59;97087.34;5101747;28;20518;-48
2023/02/17 07:53:37;;;;;;;6.25;3.03;;;;;;;14.67;76.44;97071.47;5092940;28;20070;-44
2023/02/17 07:56:07;;;;;;;5.88;2.47;;;;;;;14.71;80.26;97090.59;5094541;28;20064;-47
2023/02/17 07:58:37;;;;;;;8.48;3.00;;;;;;;14.90;78.94;97093.06;5103103;27;20079;-46
2023/02/17 08:01:06;;;;;;;6.30;2.22;;;;;;;14.71;76.95;97082.63;5096642;28;21012;-47
2023/02/17 08:03:35;;;;;;;19.05;3.20;;;;;;;14.70;76.60;97087.09;5094121;28;20090;-51
2023/02/17 08:06:04;;;;;;;10.95;3.10;;;;;;;14.70;76.85;97075.66;5105203;28;20090;-48
2023/02/17 08:14:17;;;;;;;8.02;2.80;;;;;;;14.78;73.40;97081.00;5090066;28;20075;-44
2023/02/17 08:16:46;;;;;;;5.68;2.60;;;;;;;14.80;73.76;97079.03;5098149;27;20106;-45
2023/02/17 08:19:14;;;;;;;8.77;2.97;;;;;;;15.28;72.74;97088.28;5101899;28;20066;-49
2023/02/17 08:21:43;;;;;;;6.28;2.50;;;;;;;14.87;77.53;97079.25;5112974;27;20070;-50
2023/02/17 08:24:13;;;;;;;7.80;2.13;;;;;;;15.08;77.67;97081.53;5099650;28;20067;-46
2023/02/17 08:26:41;;;;;;;8.02;2.63;;;;;;;15.01;79.53;97081.34;5106431;28;20075;-52
2023/02/17 08:29:09;;;;;;;6.65;2.35;;;;;;;14.97;80.42;97082.63;5113225;28;20451;-47
2023/02/17 08:31:38;;;;;;;6.68;2.30;;;;;;;15.08;73.79;97077.06;5109017;28;20083;-49
2023/02/17 08:34:08;;;;;;;6.88;2.45;;;;;;;14.88;75.15;97083.56;5107549;27;20082;-48
2023/02/17 08:36:37;;;;;;;;;;;;;;;15.06;80.53;97079.03;5107092;27;20078;-46
2023/02/17 08:39:07;;;;;;;7.53;2.70;;;;;;;15.12;77.99;97070.44;5112275;27;19966;-45
2023/02/17 08:41:38;;;;;;;4.63;2.05;;;;;;;15.23;78.63;97077.28;5113174;27;20083;-48
2023/02/17 08:44:08;;;;;;;9.00;2.97;;;;;;;14.88;89.80;97088.88;5108322;27;20110;-46
2023/02/17 08:46:37;;;;;;;6.93;3.50;;;;;;;15.42;84.80;97086.88;5109080;27;20138;-52
2023/02/17 08:49:06;;;;;;;9.80;2.85;;;;;;;15.31;85.11;97090.63;5118988;27;20093;-47
2023/02/17 08:51:34;;;;;;;4.30;2.72;;;;;;;15.50;82.14;97089.53;5101869;27;20075;-49
2023/02/17 08:54:05;;;;;;;8.13;3.20;;;;;;;15.46;82.54;97084.72;5104604;27;20098;-51
2023/02/17 08:56:34;;;;;;;4.97;2.70;;;;;;;15.44;76.02;97096.31;5102268;27;20183;-45
2023/02/17 08:59:04;;;;;;;5.45;2.55;;;;;;;15.34;77.03;97100.91;5089621;27;20079;-54
2023/02/17 09:01:32;;;;;;;7.28;2.95;;;;;;;15.41;82.25;97104.59;5093533;28;20094;-51
2023/02/17 09:04:02;;;;;;;6.63;2.17;;;;;;;15.09;81.60;97080.53;5094205;27;20087;-48
2023/02/17 09:06:35;;;;;;;9.50;3.53;;;;;;;15.41;86.38;97103.78;5104771;27;20101;-50
2023/02/17 09:09:05;;;;;;;7.82;3.08;;;;;;;14.82;94.90;97076.22;5095286;27;20090;-51
2023/02/17 09:11:34;;;;;;;6.97;2.33;;;;;;;14.85;100.00;97108.59;5098786;27;20480;-46
2023/02/17 09:14:05;;;;;;;6.20;2.40;;;;;;;15.00;100.00;97111.53;5098235;28;20086;-44
2023/02/17 09:16:34;;;;;;;5.88;2.33;;;;;;;14.93;100.00;97114.00;5105159;28;20089;-44
2023/02/17 09:19:02;;;;;;;5.78;2.47;;;;;;;14.82;100.00;97113.41;5099214;27;20479;-46
2023/02/17 09:21:31;;;;;;;4.82;2.83;;;;;;;14.98;100.00;97108.19;5095798;27;20090;-51
2023/02/17 09:24:00;;;;;;;6.43;2.97;;;;;;;15.08;100.00;97111.59;5101593;28;20084;-50
2023/02/17 09:26:29;;;;;;;6.68;2.97;;;;;;;15.07;100.00;97082.50;5093645;27;20479;-47
2023/02/17 09:28:57;;;;;;;6.13;2.80;;;;;;;15.29;100.00;97107.72;5102978;27;20083;-46
2023/02/17 09:31:28;;;;;;;9.07;2.80;;;;;;;16.04;98.19;97118.53;5108471;27;20079;-44
2023/02/17 09:33:57;;;;;;;7.55;2.35;;;;;;;15.77;95.34;97122.25;5102951;27;20075;-44
2023/02/17 09:36:28;;;;;;;7.43;2.60;;;;;;;15.64;97.47;97120.84;5093895;28;20511;-48
2023/02/17 09:38:57;;;;;;;12.00;2.85;;;;;;;15.64;91.58;97120.00;5107804;27;20072;-47
2023/02/17 09:41:29;;;;;;;4.82;2.42;;;;;;;15.82;86.75;97135.88;5115348;27;20079;-49
2023/02/17 09:43:58;;;;;;;7.82;2.60;;;;;;;15.76;90.03;97123.22;5092570;27;20090;-49
2023/02/17 09:46:31;;;;;;;7.32;2.35;;;;;;;15.51;90.96;97115.13;5100454;27;20083;-50
2023/02/17 09:49:02;;;;;;;9.27;2.88;;;;;;;15.70;88.32;97126.56;5109899;27;20558;-45
2023/02/17 09:51:36;;;;;;;11.20;2.10;;;;;;;16.54;85.38;97133.56;5102672;27;20079;-52
2023/02/17 09:54:08;;;;;;;4.55;2.25;;;;;;;16.31;81.32;97126.22;5105250;27;20067;-49
2023/02/17 09:56:39;;;;;;;8.57;3.13;;;;;;;15.87;77.74;97129.09;5101105;27;20082;-51
2023/02/17 09:59:12;;;;;;;8.02;2.50;;;;;;;15.86;90.88;97108.84;5093750;27;20083;-47
2023/02/17 10:01:43;;;;;;;7.32;2.95;;;;;;;15.36;85.60;97106.94;5107284;27;20090;-49
2023/02/17 10:04:14;;;;;;;7.50;2.72;;;;;;;15.89;78.35;97095.19;5102460;27;20090;-48
2023/02/17 10:06:45;;;;;;;6.45;2.25;;;;;;;16.29;78.97;97114.91;5117455;27;20551;-45
2023/02/17 10:09:15;;;;;;;;;;;;;;;16.94;73.84;97102.63;5113566;27;20083;-46
2023/02/17 10:11:48;;;;;;;4.95;2.70;;;;;;;16.11;73.09;97088.44;5098364;27;20408;-46
2023/02/17 10:14:21;;;;;;;8.60;2.40;;;;;;;16.97;72.94;97095.13;5098465;27;20091;-49
2023/02/17 10:16:55;;;;;;;6.40;2.28;;;;;;;16.92;71.34;97096.63;5103982;27;20527;-52
2023/02/17 10:19:27;;;;;;;6.22;2.17;;;;;;;17.24;69.74;97087.72;5113703;27;20083;-48
2023/02/17 10:21:59;;;;;;;11.10;2.35;;;;;;;16.83;74.46;97093.97;5109810;27;20071;-45
2023/02/17 10:24:27;;;;;;;4.15;2.00;;;;;;;16.94;75.34;97089.31;5111825;27;20087;-51
2023/02/17 10:27:08;;;;;;;5.50;2.63;;;;;;;17.22;72.35;97098.56;5094969;28;20083;-49
2023/02/17 10:29:45;;;;;;;6.10;2.20;;;;;;;17.21;73.67;97093.41;5100004;27;20078;-50
2023/02/17 10:32:22;;;;;;;4.32;1.42;;;;;;;17.13;76.71;97082.75;5094272;27;20079;-51
2023/02/17 10:35:12;;;;;;;4.47;2.17;;;;;;;17.17;74.91;97092.94;5102049;27;20087;-45
2023/02/17 10:37:46;;;;;;;7.10;2.30;;;;;;;17.22;68.03;97071.06;5100461;27;20078;-50
2023/02/17 10:40:18;;;;;;;4.38;2.38;;;;;;;17.01;69.82;97029.00;5102288;27;20213;-47
2023/02/17 10:42:48;;;;;;;5.07;2.50;;;;;;;17.43;72.85;97082.00;5103145;27;20082;-48
2023/02/17 10:45:24;;;;;;;9.13;2.47;;;;;;;17.65;73.40;97082.25;5098054;27;20070;-48
2023/02/17 10:47:57;;;;;;;7.38;2.00;;;;;;;17.88;68.31;97079.66;5097624;28;20536;-46
2023/02/17 10:50:26;;;;;;;6.32;2.20;;;;;;;17.66;68.62;97063.41;5102488;27;20094;-48
2023/02/17 10:52:55;;;;;;;4.68;2.25;;;;;;;18.00;63.02;97084.44;5102020;27;20079;-50
2023/02/17 10:55:32;;;;;;;5.45;1.70;;;;;;;17.87;67.35;97081.50;5101528;27;20091;-52
2023/02/17 10:58:05;;;;;;;5.75;2.30;;;;;;;18.29;65.75;97069.56;5093841;27;20090;-49
2023/02/17 11:00:34;;;;;;;5.65;2.33;;;;;;;17.53;64.76;97077.28;5095901;28;20075;-49
2023/02/17 11:03:04;;;;;;;5.95;2.00;;;;;;;17.62;63.45;97077.25;5093931;27;20134;-51
2023/02/17 11:05:34;;;;;;;4.90;2.35;;;;;;;18.14;63.36;97074.84;5105175;27;20081;-51
2023/02/17 11:08:05;;;;;;;5.50;1.98;;;;;;;17.65;68.79;97071.56;5097755;27;20070;-48
2023/02/17 11:10:35;;;;;;;4.93;2.28;;;;;;;17.54;65.29;97062.13;5097245;28;20078;-45
2023/02/17 11:13:05;;;;;;;;;;;;;;;17.96;66.93;97059.13;5096801;27;20079;-45
2023/02/17 11:15:36;;;;;;;3.83;2.15;;;;;;;18.35;63.21;97058.19;5103619;27;19978;-46
2023/02/17 11:18:16;;;;;;;4.47;1.80;;;;;;;18.65;62.06;97037.72;5099648;27;20092;-45
2023/02/17 11:20:44;;;;;;;3.78;2.03;;;;;;;18.16;59.76;97039.94;5097388;28;20084;-49
2023/02/17 11:23:24;;;;;;;7.55;2.20;;;;;;;19.03;60.06;97050.22;5097624;27;20083;-49
2023/02/17 11:26:01;;;;;;;6.00;2.15;;;;;;;18.95;60.18;97040.47;5092211;28;20080;-45
2023/02/17 11:28:29;;;;;;;8.98;2.38;;;;;;;19.16;62.89;97050.44;5100275;28;20549;-49
2023/02/17 11:31:01;;;;;;;6.53;1.45;;;;;;;18.49;59.68;97037.88;5102342;27;20083;-49
2023/02/17 11:33:33;;;;;;;6.47;2.05;;;;;;;18.87;61.61;97048.56;5096664;28;20080;-48
2023/02/17 11:36:02;;;;;;;6.93;2.45;;;;;;;18.55;61.29;97052.31;5097372;28;20110;-52
2023/02/17 11:38:34;;;;;;;4.68;2.58;;;;;;;18.27;63.05;97027.03;5089243;28;20079;-49
2023/02/17 11:41:05;;;;;;;9.18;2.45;;;;;;;18.21;64.96;97041.09;5098662;27;20101;-50
2023/02/17 11:43:35;;;;;;;5.93;2.40;;;;;;;18.35;61.44;97036.81;5102099;27;20071;-50
2023/02/17 11:46:16;;;;;;;5.13;2.03;;;;;;;18.30;60.09;97016.97;5110072;28;20081;-53
2023/02/17 11:49:02;;;;;;;9.15;2.08;;;;;;;18.60;55.98;97023.25;5106117;28;20865;-48
2023/02/17 11:51:39;;;;;;;5.03;2.03;;;;;;;18.64;56.01;97029.88;5098006;28;20091;-47